Darstellungsparameter: Aktuell verwendete Einstellungen:
Skalierung der Graphiken ... ?
xyx+y,   Skalierungsfaktor:      Skalierung: Modus: x, Faktor: 1
Darstellungszeitraum ... ?
Vom - - bis: - -   Zeitraum: 19.04.2021 - 19.04.2021
Min/Max/Avg-Anzeige ... ?
Zeige MMA aktuell
Zeige MMA Monat
Zeige MMA alles
Zeige --A aktuell
Zeige --A Monat
Zeige --A alles
Keine MMA-Anzeige
MMA:
Average (ber die Originaldaten)
MMA-Basis: 19.04.2021 - 19.04.2021
Quicknavigation für Darstellung... ?
Tage:      1T, 2T, 3T, 5T -1T -2T -3T -5T +1T +2T +3T +5T
Wochen: 1W, 2W, 3W -1W -2W -3W +1W +2W +3W
Monate: 1M, 3M, 6M -1M -3M -6M +1M +3M +6M
Jahre:    1J, 3J, 5J, 10J -1J -3J -5J -10J +1J +3J +5J +10J
Nutze für die Darstellung ... ?
Originaldaten oder Mittelwerte auf ...
Stundenbasis Tagesbasis Wochenbasis
Monatsbasis Jahresbasis      Datenbasis: Original-Daten
Darstellen als:
Statistik (Auto) Statistik J:M      Darstellung:

Der gewünschte Datumsbereich war nicht gültig/verfügbar und wurde korrigiert....
Das angegebene Enddatum (25.09.2021 23:59:59) liegt in der Zukunft.
Das angegebene Startdatum (26.08.2021 00:00:00) liegt in der Zukunft.


Zur Graphik,    zurück zur Übersicht aller Sensoren.
 
Tabellarische Datenbersicht: ?
 
Sensor: Nr:Datum:Temp:Abs-Feuchte:Windchill:Wind:
Aussen-T/F 1 19-04-2021 02:00:00 8.6 C 7.82 g/m*3 8.6 C 3.2 km/h
2 19-04-2021 02:05:00 8.6 C 7.82 g/m*3 8.6 C 0 km/h
3 19-04-2021 02:10:00 8.6 C 7.82 g/m*3 8.6 C 0 km/h
4 19-04-2021 02:15:00 8.6 C 7.82 g/m*3 8.6 C 0 km/h
5 19-04-2021 02:20:00 8.6 C 7.91 g/m*3 8.6 C 0 km/h
6 19-04-2021 02:25:00 8.6 C 7.91 g/m*3 8.6 C 1.6 km/h
7 19-04-2021 02:30:00 8.5 C 7.85 g/m*3 8.5 C 1.6 km/h
8 19-04-2021 02:35:00 8.4 C 7.8 g/m*3 8.4 C 1.6 km/h
9 19-04-2021 02:40:00 8.4 C 7.8 g/m*3 8.4 C 0 km/h
10 19-04-2021 02:45:00 8.3 C 7.75 g/m*3 8.3 C 0 km/h
11 19-04-2021 02:50:00 8.3 C 7.75 g/m*3 8.3 C 0 km/h
12 19-04-2021 02:55:00 8.3 C 7.75 g/m*3 8.3 C 0 km/h
13 19-04-2021 03:00:00 8.3 C 7.75 g/m*3 8.3 C 0 km/h
14 19-04-2021 03:05:00 8.2 C 7.7 g/m*3 8.2 C 0 km/h
15 19-04-2021 03:10:00 8.2 C 7.79 g/m*3 8.2 C 1.6 km/h
16 19-04-2021 03:15:00 8.2 C 7.79 g/m*3 8.2 C 3.2 km/h
17 19-04-2021 03:20:00 8.2 C 7.79 g/m*3 8.2 C 1.6 km/h
18 19-04-2021 03:25:00 8.2 C 7.79 g/m*3 8.2 C 1.6 km/h
19 19-04-2021 03:30:00 8.2 C 7.79 g/m*3 8.2 C 0 km/h
20 19-04-2021 03:35:00 8.2 C 7.79 g/m*3 8.2 C 0 km/h
21 19-04-2021 03:40:00 8.1 C 7.74 g/m*3 8.1 C 0 km/h
22 19-04-2021 03:45:00 8 C 7.69 g/m*3 8 C 0 km/h
23 19-04-2021 03:50:00 7.9 C 7.64 g/m*3 7.9 C 0 km/h
24 19-04-2021 03:55:00 7.9 C 7.64 g/m*3 7.9 C 0 km/h
25 19-04-2021 04:00:00 7.8 C 7.59 g/m*3 7.8 C 0 km/h
Sensor: Nr:Datum:Temp:Abs-Feuchte:Windchill:Wind:
Aussen-T/F 26 19-04-2021 04:05:00 7.8 C 7.59 g/m*3 7.8 C 0 km/h
27 19-04-2021 04:10:00 7.8 C 7.59 g/m*3 7.8 C 0 km/h
28 19-04-2021 04:15:00 7.8 C 7.67 g/m*3 7.8 C 0 km/h
29 19-04-2021 04:20:00 7.8 C 7.67 g/m*3 7.8 C 0 km/h
30 19-04-2021 04:25:00 7.8 C 7.67 g/m*3 7.8 C 0 km/h
31 19-04-2021 04:30:00 7.8 C 7.67 g/m*3 7.8 C 0 km/h
32 19-04-2021 04:35:00 7.8 C 7.67 g/m*3 7.8 C 0 km/h
33 19-04-2021 04:40:00 7.8 C 7.67 g/m*3 7.8 C 0 km/h
34 19-04-2021 04:45:00 7.8 C 7.67 g/m*3 7.8 C 0 km/h
35 19-04-2021 04:50:00 7.7 C 7.62 g/m*3 7.7 C 0 km/h
36 19-04-2021 04:55:00 7.7 C 7.62 g/m*3 7.7 C 0 km/h
37 19-04-2021 05:00:00 7.7 C 7.62 g/m*3 7.7 C 0 km/h
38 19-04-2021 05:05:00 7.7 C 7.62 g/m*3 7.7 C 0 km/h
39 19-04-2021 05:10:00 7.7 C 7.62 g/m*3 7.7 C 0 km/h
40 19-04-2021 05:15:00 7.7 C 7.62 g/m*3 7.7 C 0 km/h
41 19-04-2021 05:20:00 7.7 C 7.62 g/m*3 7.7 C 0 km/h
42 19-04-2021 05:25:00 7.7 C 7.62 g/m*3 7.7 C 0 km/h
43 19-04-2021 05:30:00 7.7 C 7.62 g/m*3 7.7 C 0 km/h
44 19-04-2021 05:35:00 7.7 C 7.62 g/m*3 7.7 C 0 km/h
45 19-04-2021 05:40:00 7.7 C 7.62 g/m*3 7.7 C 0 km/h
46 19-04-2021 05:45:00 7.7 C 7.62 g/m*3 7.7 C 0 km/h
47 19-04-2021 05:50:00 7.7 C 7.62 g/m*3 7.7 C 0 km/h
48 19-04-2021 05:55:00 7.7 C 7.7 g/m*3 7.7 C 0 km/h
49 19-04-2021 06:00:00 7.7 C 7.7 g/m*3 7.7 C 0 km/h
50 19-04-2021 06:05:00 7.7 C 7.62 g/m*3 7.7 C 0 km/h
Sensor: Nr:Datum:Temp:Abs-Feuchte:Windchill:Wind:
Aussen-T/F 51 19-04-2021 06:10:00 7.7 C 7.62 g/m*3 7.7 C 0 km/h
52 19-04-2021 06:15:00 7.6 C 7.65 g/m*3 7.6 C 0 km/h
53 19-04-2021 06:20:00 7.6 C 7.57 g/m*3 7.6 C 0 km/h
54 19-04-2021 06:25:00 7.5 C 7.6 g/m*3 7.5 C 0 km/h
55 19-04-2021 06:30:00 7.4 C 7.48 g/m*3 7.4 C 0 km/h
56 19-04-2021 06:35:00 7.4 C 7.48 g/m*3 7.4 C 0 km/h
57 19-04-2021 06:40:00 7.4 C 7.48 g/m*3 7.4 C 0 km/h
58 19-04-2021 06:45:00 7.4 C 7.55 g/m*3 7.4 C 0 km/h
59 19-04-2021 06:50:00 7.4 C 7.55 g/m*3 7.4 C 0 km/h
60 19-04-2021 06:55:00 7.4 C 7.55 g/m*3 7.4 C 0 km/h
61 19-04-2021 07:00:00 7.6 C 7.65 g/m*3 7.6 C 0 km/h
62 19-04-2021 07:05:00 7.6 C 7.65 g/m*3 7.6 C 0 km/h
63 19-04-2021 07:10:00 7.7 C 7.7 g/m*3 7.7 C 0 km/h
64 19-04-2021 07:15:00 7.7 C 7.7 g/m*3 7.7 C 0 km/h
65 19-04-2021 07:20:00 7.7 C 7.7 g/m*3 7.7 C 0 km/h
66 19-04-2021 07:25:00 7.7 C 7.7 g/m*3 7.7 C 0 km/h
67 19-04-2021 07:30:00 7.8 C 7.75 g/m*3 7.8 C 0 km/h
68 19-04-2021 07:35:00 7.8 C 7.75 g/m*3 7.8 C 0 km/h
69 19-04-2021 07:40:00 7.8 C 7.75 g/m*3 7.8 C 0 km/h
70 19-04-2021 07:45:00 7.9 C 7.8 g/m*3 7.9 C 0 km/h
71 19-04-2021 07:50:00 7.9 C 7.8 g/m*3 7.9 C 0 km/h
72 19-04-2021 07:55:00 7.9 C 7.8 g/m*3 7.9 C 0 km/h
73 19-04-2021 08:00:00 7.9 C 7.8 g/m*3 7.9 C 0 km/h
74 19-04-2021 08:05:00 8 C 7.85 g/m*3 8 C 0 km/h
75 19-04-2021 08:10:00 8.1 C 7.9 g/m*3 8.1 C 0 km/h
Sensor: Nr:Datum:Temp:Abs-Feuchte:Windchill:Wind:
Aussen-T/F 76 19-04-2021 08:15:00 8.1 C 7.99 g/m*3 8.1 C 0 km/h
77 19-04-2021 08:20:00 8.2 C 8.04 g/m*3 8.2 C 0 km/h
78 19-04-2021 08:25:00 8.2 C 8.04 g/m*3 8.2 C 0 km/h
79 19-04-2021 08:30:00 8.2 C 8.04 g/m*3 8.2 C 0 km/h
80 19-04-2021 08:35:00 8.2 C 8.04 g/m*3 8.2 C 0 km/h
81 19-04-2021 08:40:00 8.2 C 8.04 g/m*3 8.2 C 0 km/h
82 19-04-2021 08:45:00 8.2 C 8.04 g/m*3 8.2 C 0 km/h
83 19-04-2021 08:50:00 8.2 C 8.04 g/m*3 8.2 C 0 km/h
84 19-04-2021 08:55:00 8.3 C 8.09 g/m*3 8.3 C 0 km/h
85 19-04-2021 09:00:00 8.3 C 8.09 g/m*3 8.3 C 0 km/h
86 19-04-2021 09:05:00 8.3 C 8.09 g/m*3 8.3 C 0 km/h
87 19-04-2021 09:10:00 8.3 C 8.09 g/m*3 8.3 C 0 km/h
88 19-04-2021 09:15:00 8.3 C 8.09 g/m*3 8.3 C 0 km/h
89 19-04-2021 09:20:00 8.3 C 8.09 g/m*3 8.3 C 0 km/h
90 19-04-2021 09:25:00 8.3 C 8.09 g/m*3 8.3 C 0 km/h
91 19-04-2021 09:30:00 8.3 C 8.09 g/m*3 8.3 C 0 km/h
92 19-04-2021 09:35:00 8.3 C 8.09 g/m*3 8.3 C 0 km/h
93 19-04-2021 09:40:00 8.3 C 8.09 g/m*3 8.3 C 0 km/h
94 19-04-2021 09:45:00 8.3 C 8.09 g/m*3 8.3 C 0 km/h
95 19-04-2021 09:50:00 8.3 C 8.09 g/m*3 8.3 C 0 km/h
96 19-04-2021 09:55:00 8.4 C 8.14 g/m*3 8.4 C 0 km/h
97 19-04-2021 10:00:00 8.4 C 8.14 g/m*3 8.4 C 0 km/h
98 19-04-2021 10:05:00 8.6 C 8.25 g/m*3 8.6 C 0 km/h
99 19-04-2021 10:10:00 8.6 C 8.25 g/m*3 8.6 C 0 km/h
100 19-04-2021 10:15:00 8.7 C 8.3 g/m*3 8.7 C 0 km/h
Sensor: Nr:Datum:Temp:Abs-Feuchte:Windchill:Wind:
Aussen-T/F 101 19-04-2021 10:20:00 8.7 C 8.3 g/m*3 8.7 C 0 km/h
102 19-04-2021 10:25:00 8.8 C 8.36 g/m*3 8.8 C 1.6 km/h
103 19-04-2021 10:30:00 8.8 C 8.36 g/m*3 8.8 C 0 km/h
104 19-04-2021 10:35:00 8.8 C 8.27 g/m*3 8.8 C 0 km/h
105 19-04-2021 10:40:00 8.9 C 8.41 g/m*3 8.9 C 0 km/h
106 19-04-2021 10:45:00 9.1 C 8.52 g/m*3 9.1 C 0 km/h
107 19-04-2021 10:50:00 9 C 8.38 g/m*3 9 C 0 km/h
108 19-04-2021 10:55:00 9 C 8.38 g/m*3 9 C 0 km/h
109 19-04-2021 11:00:00 9 C 8.38 g/m*3 9 C 1.6 km/h
110 19-04-2021 11:05:00 9.1 C 8.43 g/m*3 9.1 C 1.6 km/h
111 19-04-2021 11:10:00 9.2 C 8.48 g/m*3 9.2 C 3.2 km/h
112 19-04-2021 11:15:00 9.3 C 8.54 g/m*3 9.3 C 1.6 km/h
113 19-04-2021 11:20:00 9.3 C 8.45 g/m*3 9.3 C 1.6 km/h
114 19-04-2021 11:25:00 9.5 C 8.56 g/m*3 9.5 C 4.8 km/h
115 19-04-2021 11:30:00 9.7 C 8.67 g/m*3 9.7 C 0 km/h
116 19-04-2021 11:35:00 9.9 C 8.78 g/m*3 9.9 C 1.6 km/h
117 19-04-2021 11:40:00 9.9 C 8.59 g/m*3 9.9 C 4.8 km/h
118 19-04-2021 11:45:00 9.9 C 8.5 g/m*3 9.9 C 3.2 km/h
119 19-04-2021 11:50:00 10.1 C 8.61 g/m*3 10.1 C 3.2 km/h
120 19-04-2021 11:55:00 10.2 C 8.66 g/m*3 10.2 C 1.6 km/h
121 19-04-2021 12:00:00 10.2 C 8.47 g/m*3 10.2 C 3.2 km/h
122 19-04-2021 12:05:00 10.2 C 8.47 g/m*3 10.2 C 3.2 km/h
123 19-04-2021 12:10:00 10.2 C 8.37 g/m*3 10.2 C 3.2 km/h
124 19-04-2021 12:15:00 10.4 C 8.48 g/m*3 9.83 C 6.4 km/h
125 19-04-2021 12:20:00 10.6 C 8.49 g/m*3 10.6 C 4.8 km/h
Sensor: Nr:Datum:Temp:Abs-Feuchte:Windchill:Wind:
Aussen-T/F 126 19-04-2021 12:25:00 10.9 C 8.65 g/m*3 10.9 C 3.2 km/h
127 19-04-2021 12:30:00 11.2 C 8.62 g/m*3 11.2 C 4.8 km/h
128 19-04-2021 12:35:00 11.5 C 8.78 g/m*3 11.5 C 4.8 km/h
129 19-04-2021 12:40:00 11.9 C 8.79 g/m*3 11.9 C 8.1 km/h
130 19-04-2021 12:45:00 12.1 C 8.69 g/m*3 12.1 C 6.4 km/h
131 19-04-2021 12:50:00 12.1 C 8.47 g/m*3 12.1 C 4.8 km/h
132 19-04-2021 12:55:00 12 C 8.31 g/m*3 12 C 1.6 km/h
133 19-04-2021 13:00:00 11.9 C 8.15 g/m*3 11.9 C 3.2 km/h
134 19-04-2021 13:05:00 11.8 C 8.21 g/m*3 11.8 C 0 km/h
135 19-04-2021 13:10:00 11.8 C 8.1 g/m*3 11.8 C 4.8 km/h
136 19-04-2021 13:15:00 11.9 C 8.26 g/m*3 11.9 C 3.2 km/h
137 19-04-2021 13:20:00 12.1 C 8.36 g/m*3 12.1 C 6.4 km/h
138 19-04-2021 13:25:00 12.3 C 8.69 g/m*3 12.3 C 6.4 km/h
139 19-04-2021 13:30:00 12.4 C 8.3 g/m*3 12.4 C 8.1 km/h
140 19-04-2021 13:35:00 12.4 C 8.19 g/m*3 12.4 C 3.2 km/h
141 19-04-2021 13:40:00 12.5 C 8.14 g/m*3 12.5 C 4.8 km/h
142 19-04-2021 13:45:00 12.4 C 8.19 g/m*3 12.4 C 6.4 km/h
143 19-04-2021 13:50:00 12.4 C 8.19 g/m*3 12.4 C 3.2 km/h
144 19-04-2021 13:55:00 12.3 C 8.04 g/m*3 12.3 C 4.8 km/h
145 19-04-2021 14:00:00 12.4 C 8.09 g/m*3 12.4 C 4.8 km/h
146 19-04-2021 14:05:00 12.6 C 8.3 g/m*3 12.6 C 3.2 km/h
147 19-04-2021 14:10:00 12.7 C 8.13 g/m*3 12.7 C 4.8 km/h
148 19-04-2021 14:15:00 12.8 C 7.95 g/m*3 12.8 C 4.8 km/h
149 19-04-2021 14:20:00 12.8 C 7.95 g/m*3 12.8 C 4.8 km/h
150 19-04-2021 14:25:00 12.7 C 7.9 g/m*3 12.7 C 6.4 km/h
Sensor: Nr:Datum:Temp:Abs-Feuchte:Windchill:Wind:
Aussen-T/F 151 19-04-2021 14:30:00 12.8 C 7.95 g/m*3 12.8 C 4.8 km/h
152 19-04-2021 14:35:00 12.8 C 7.95 g/m*3 12.8 C 1.6 km/h
153 19-04-2021 14:40:00 12.9 C 7.78 g/m*3 12.9 C 3.2 km/h
154 19-04-2021 14:45:00 13.1 C 7.76 g/m*3 13.1 C 4.8 km/h
155 19-04-2021 14:50:00 13.2 C 7.92 g/m*3 13.2 C 3.2 km/h
156 19-04-2021 14:55:00 13.3 C 7.97 g/m*3 13.3 C 3.2 km/h
157 19-04-2021 15:00:00 13.3 C 7.86 g/m*3 13.3 C 3.2 km/h
158 19-04-2021 15:05:00 13.4 C 7.79 g/m*3 13.4 C 6.4 km/h
159 19-04-2021 15:10:00 13.3 C 7.51 g/m*3 13.3 C 4.8 km/h
160 19-04-2021 15:15:00 13.3 C 7.51 g/m*3 13.3 C 3.2 km/h
161 19-04-2021 15:20:00 13.4 C 7.79 g/m*3 13.4 C 6.4 km/h
162 19-04-2021 15:25:00 13.5 C 7.72 g/m*3 13.5 C 3.2 km/h
163 19-04-2021 15:30:00 13.6 C 7.77 g/m*3 13.6 C 0 km/h
164 19-04-2021 15:35:00 13.6 C 7.53 g/m*3 13.6 C 8.1 km/h
165 19-04-2021 15:40:00 13.6 C 7.65 g/m*3 13.6 C 0 km/h
166 19-04-2021 15:45:00 13.6 C 7.65 g/m*3 13.6 C 3.2 km/h

Legende:
   Min
   Max


Maximal/Minimal-Werte vom 19.04.2021 - 19.04.2021

Sensor Min Max Avg
Temp
(Aussen-T/F)
7.4 °C
19-04-2021  06:30:00
13.6 °C
19-04-2021  15:30:00
9.37 °C
Abs-Feuchte
(Aussen-T/F)
7.48 g/m*3
19-04-2021  06:30:00
8.79 g/m*3
19-04-2021  12:40:00
7.92 g/m*3
Windchill
(Aussen-T/F)
7.4 C
19-04-2021  06:30:00
13.6 C
19-04-2021  15:30:00
9.31 C

Die Daten stammen von einer Davis Vantage Pro 2 Wetter-Station und werden unter Linux mit der Software wview2wettercgi und aufbereitet. Alle Angaben erfolgen ohne Gewähr für ihre Vollständigkeit oder Richtigkeit.
Kontakt: Rainer Krienke krienke@uni-koblenz.de . Meine Webseiten an der Uni Koblenz oder privat.
Version: $Revision: 0.78 $